Time;durP1;ratioP1;P1;durP2;ratioP2;P2;SDS_P1;SDS_P2;PMS_P1;PMS_P2;Temp;Humidity;BMP_temperature;BMP_pressure;BME280_temperature;BME280_humidity;BME280_pressure;Samples;Min_cycle;Max_cycle;Signal;HPM_P1;HPM_P2
2022/02/28 00:00:43;;;;;;;4.67;2.70;;;;;;;0.79;60.51;96413.47;1728536;82;21572;-66
2022/02/28 00:03:10;;;;;;;4.87;2.40;;;;;;;0.77;61.19;96399.12;1730301;83;21038;-66
2022/02/28 00:05:37;;;;;;;5.43;2.60;;;;;;;0.72;60.99;96409.78;1730188;83;21053;-66
2022/02/28 00:08:04;;;;;;;5.57;2.67;;;;;;;0.69;60.95;96417.91;1730121;83;21058;-66
2022/02/28 00:10:31;;;;;;;4.87;3.00;;;;;;;0.72;61.13;96408.91;1730092;83;20994;-66
2022/02/28 00:12:57;;;;;;;6.13;2.80;;;;;;;0.74;60.88;96404.23;1730066;83;21034;-65
2022/02/28 00:15:24;;;;;;;2.93;2.20;;;;;;;0.75;60.95;96391.69;1730055;83;20983;-66
2022/02/28 00:17:51;;;;;;;5.23;2.53;;;;;;;0.78;60.25;96389.61;1730086;82;21014;-65
2022/02/28 00:20:18;;;;;;;5.07;2.13;;;;;;;0.84;60.31;96391.12;1730086;83;21536;-65
2022/02/28 00:22:45;;;;;;;4.10;2.40;;;;;;;0.86;60.21;96389.45;1730080;83;21003;-65
2022/02/28 00:25:12;;;;;;;3.10;2.03;;;;;;;0.89;60.27;96393.87;1730035;83;21134;-66
2022/02/28 00:27:40;;;;;;;6.80;2.60;;;;;;;0.88;60.57;96392.08;1730203;83;21050;-66
2022/02/28 00:30:10;;;;;;;4.77;2.57;;;;;;;0.82;61.61;96394.08;1730078;83;21022;-66
2022/02/28 00:32:38;;;;;;;5.27;3.23;;;;;;;0.78;61.49;96389.22;1730017;82;21015;-66
2022/02/28 00:35:06;;;;;;;3.67;2.40;;;;;;;0.75;61.58;96386.92;1730176;83;21017;-66
2022/02/28 00:37:33;;;;;;;5.00;2.60;;;;;;;0.71;61.83;96386.38;1730248;82;20998;-66
2022/02/28 00:40:01;;;;;;;8.33;3.20;;;;;;;0.72;61.88;96387.70;1729986;83;21034;-66
2022/02/28 00:42:27;;;;;;;7.17;2.90;;;;;;;0.72;61.35;96382.52;1730226;83;21045;-66
2022/02/28 00:44:54;;;;;;;5.20;2.67;;;;;;;0.72;61.32;96373.84;1730085;83;21516;-66
2022/02/28 00:47:21;;;;;;;4.43;2.87;;;;;;;0.74;61.25;96375.66;1730097;83;21009;-66
2022/02/28 00:49:48;;;;;;;4.20;2.80;;;;;;;0.79;61.19;96368.02;1730076;83;21035;-66
2022/02/28 00:52:15;;;;;;;4.73;2.77;;;;;;;0.80;61.35;96361.55;1729967;83;20967;-66
2022/02/28 00:54:41;;;;;;;5.90;3.00;;;;;;;0.81;61.93;96365.05;1730169;83;20991;-66
2022/02/28 00:57:08;;;;;;;4.20;2.80;;;;;;;0.77;61.26;96365.35;1730109;83;21080;-66
2022/02/28 00:59:34;;;;;;;4.97;2.80;;;;;;;0.79;61.48;96357.63;1729893;83;21011;-66
2022/02/28 01:02:01;;;;;;;6.53;3.43;;;;;;;0.82;61.92;96351.22;1734871;82;21038;-66
2022/02/28 01:04:28;;;;;;;7.33;3.50;;;;;;;0.85;61.92;96351.30;1738088;82;21022;-65
2022/02/28 01:06:54;;;;;;;4.80;2.93;;;;;;;0.88;61.86;96350.52;1738237;82;21042;-65
2022/02/28 01:09:22;;;;;;;6.67;3.37;;;;;;;0.88;61.75;96344.02;1738132;82;21017;-65
2022/02/28 01:11:48;;;;;;;5.60;2.93;;;;;;;0.89;61.82;96340.61;1738263;82;21026;-65
2022/02/28 01:14:15;;;;;;;7.77;2.73;;;;;;;0.89;61.56;96338.02;1738186;82;21449;-66
2022/02/28 01:16:42;;;;;;;7.10;3.00;;;;;;;0.82;61.69;96340.41;1738068;82;21030;-66
2022/02/28 01:19:09;;;;;;;5.73;2.73;;;;;;;0.80;61.49;96336.87;1738175;82;21515;-66
2022/02/28 01:21:35;;;;;;;5.97;2.90;;;;;;;0.79;61.52;96334.24;1738201;82;21484;-66
2022/02/28 01:24:02;;;;;;;4.23;2.87;;;;;;;0.74;60.52;96328.90;1738190;82;21022;-66
2022/02/28 01:26:29;;;;;;;4.50;2.77;;;;;;;0.67;61.50;96327.36;1738263;82;21002;-66
2022/02/28 01:28:55;;;;;;;6.00;2.90;;;;;;;0.50;64.08;96332.89;1738088;82;21086;-66
2022/02/28 01:31:22;;;;;;;5.63;2.67;;;;;;;0.39;63.53;96328.66;1738084;82;20970;-66
2022/02/28 01:33:49;;;;;;;3.47;2.50;;;;;;;0.30;64.84;96330.95;1738218;82;21578;-66
2022/02/28 01:36:15;;;;;;;5.90;2.63;;;;;;;0.24;65.17;96328.59;1738022;82;21014;-66
2022/02/28 01:38:42;;;;;;;5.60;2.87;;;;;;;0.24;64.49;96328.59;1738077;82;21038;-66
2022/02/28 01:41:08;;;;;;;4.30;3.00;;;;;;;0.25;64.36;96320.83;1738216;82;21042;-66
2022/02/28 01:43:35;;;;;;;4.47;2.37;;;;;;;0.26;64.06;96317.42;1738092;82;21543;-66
2022/02/28 01:46:02;;;;;;;5.97;2.80;;;;;;;0.25;64.88;96320.83;1737978;82;21061;-66
2022/02/28 01:48:28;;;;;;;7.37;3.60;;;;;;;0.18;66.54;96322.78;1738133;82;21054;-66
2022/02/28 01:50:55;;;;;;;5.03;2.90;;;;;;;0.18;65.96;96321.06;1738257;82;21463;-66
2022/02/28 01:53:22;;;;;;;8.10;3.60;;;;;;;0.11;66.61;96319.09;1738244;82;21030;-66
2022/02/28 01:55:48;;;;;;;4.87;2.80;;;;;;;0.02;66.32;96318.78;1738063;82;21049;-66
2022/02/28 01:58:15;;;;;;;7.57;2.67;;;;;;;0.03;66.46;96314.50;1738204;82;21027;-66
2022/02/28 02:00:43;;;;;;;4.53;2.67;;;;;;;0.01;66.51;96320.05;1738158;82;21042;-66
2022/02/28 02:03:10;;;;;;;6.13;3.03;;;;;;;-0.05;66.71;96312.52;1743124;82;21150;-66
2022/02/28 02:05:36;;;;;;;3.87;2.37;;;;;;;-0.07;67.11;96325.85;1743671;82;20955;-66
2022/02/28 02:08:07;;;;;;;3.40;2.20;;;;;;;-0.10;67.32;96315.77;1738761;82;21481;-66
2022/02/28 02:10:35;;;;;;;4.87;2.60;;;;;;;-0.12;67.42;96315.73;1743687;82;21504;-66
2022/02/28 02:13:02;;;;;;;3.83;2.73;;;;;;;-0.16;67.34;96316.87;1743455;82;21508;-66
2022/02/28 02:15:30;;;;;;;9.70;4.33;;;;;;;-0.24;67.81;96314.02;1743521;81;21062;-66
2022/02/28 02:17:58;;;;;;;7.10;3.20;;;;;;;-0.22;67.80;96306.75;1743272;82;21125;-66
2022/02/28 02:20:31;;;;;;;6.60;3.40;;;;;;;-0.19;68.01;96305.97;1743639;82;21018;-65
2022/02/28 02:23:06;;;;;;;5.10;3.30;;;;;;;-0.19;69.77;96307.27;1743457;82;21085;-66
2022/02/28 02:25:35;;;;;;;5.23;2.77;;;;;;;-0.20;69.26;96304.61;1743385;82;21070;-66
2022/02/28 02:28:04;;;;;;;4.67;2.80;;;;;;;-0.17;68.81;96304.32;1742622;82;21086;-66
2022/02/28 02:30:32;;;;;;;8.17;4.03;;;;;;;-0.20;70.21;96305.91;1743536;82;21014;-66
2022/02/28 02:33:00;;;;;;;7.70;3.97;;;;;;;-0.18;70.02;96306.84;1743331;82;21105;-66
2022/02/28 02:35:28;;;;;;;7.47;3.60;;;;;;;-0.20;69.66;96301.63;1743704;82;20967;-66
2022/02/28 02:37:55;;;;;;;5.57;2.80;;;;;;;-0.12;69.04;96299.30;1743165;82;21125;-67
2022/02/28 02:40:22;;;;;;;4.63;2.93;;;;;;;-0.17;69.26;96299.55;1749495;82;21019;-66
2022/02/28 02:42:49;;;;;;;4.27;2.17;;;;;;;-0.29;69.00;96293.11;1743419;82;21106;-66
2022/02/28 02:45:16;;;;;;;4.97;2.60;;;;;;;-0.24;69.29;96291.55;1743539;82;20983;-66
2022/02/28 02:47:42;;;;;;;21.20;14.43;;;;;;;-0.16;69.19;96292.23;1743427;82;21093;-66
2022/02/28 02:50:11;;;;;;;7.53;5.03;;;;;;;-0.16;69.44;96288.34;1743589;82;21086;-66
2022/02/28 02:52:38;;;;;;;2.93;1.90;;;;;;;-0.24;68.61;96292.84;1743644;82;21069;-66
2022/02/28 02:55:07;;;;;;;6.80;2.57;;;;;;;-0.28;69.96;96295.27;1743666;82;21085;-66
2022/02/28 02:57:34;;;;;;;4.97;2.77;;;;;;;-0.41;69.93;96296.98;1743635;82;21002;-66
2022/02/28 03:00:05;;;;;;;4.77;2.33;;;;;;;-0.45;69.98;96288.23;1743613;82;21018;-66
2022/02/28 03:02:34;;;;;;;11.00;2.92;;;;;;;-0.51;70.07;96290.59;1735011;82;21031;-66
2022/02/28 03:05:01;;;;;;;4.90;2.03;;;;;;;-0.56;70.26;96296.91;1730262;82;21007;-66
2022/02/28 03:07:28;;;;;;;4.93;2.83;;;;;;;-0.53;70.10;96290.56;1730205;82;20971;-66
2022/02/28 03:09:55;;;;;;;5.50;2.70;;;;;;;-0.51;70.17;96295.36;1730345;83;21058;-66
2022/02/28 03:12:22;;;;;;;4.50;2.47;;;;;;;-0.46;70.09;96290.34;1730275;82;20982;-66
2022/02/28 03:14:49;;;;;;;7.83;2.90;;;;;;;-0.47;70.05;96287.30;1742586;82;21474;-66
2022/02/28 03:17:16;;;;;;;13.50;4.70;;;;;;;-0.57;71.07;96287.80;1730145;83;21043;-66
2022/02/28 03:19:43;;;;;;;8.40;3.97;;;;;;;-0.65;71.78;96287.53;1730165;83;21517;-66
2022/02/28 03:22:10;;;;;;;4.80;2.40;;;;;;;-0.61;71.53;96291.10;1730245;83;21015;-66
2022/02/28 03:24:38;;;;;;;5.03;3.00;;;;;;;-0.60;71.68;96291.16;1730431;82;21146;-66
2022/02/28 03:27:05;;;;;;;3.57;2.57;;;;;;;-0.61;71.22;96292.39;1730299;82;21490;-66
2022/02/28 03:29:33;;;;;;;7.90;2.90;;;;;;;-0.61;71.21;96282.03;1730281;83;21119;-66
2022/02/28 03:32:00;;;;;;;6.10;2.53;;;;;;;-0.58;71.10;96289.52;1730059;83;21473;-66
2022/02/28 03:34:26;;;;;;;6.63;2.90;;;;;;;-0.51;71.17;96287.58;1730211;83;21015;-66
2022/02/28 03:36:53;;;;;;;5.80;2.77;;;;;;;-0.49;70.60;96283.76;1730215;83;21062;-66
2022/02/28 03:39:20;;;;;;;6.27;2.77;;;;;;;-0.49;70.60;96283.34;1730298;83;21034;-66
2022/02/28 03:41:46;;;;;;;5.73;2.70;;;;;;;-0.45;70.58;96276.15;1742457;82;21153;-66
2022/02/28 03:44:14;;;;;;;4.60;2.40;;;;;;;-0.45;70.68;96272.68;1730323;83;21501;-66
2022/02/28 03:46:41;;;;;;;3.50;2.50;;;;;;;-0.44;70.37;96275.72;1730167;82;21035;-66
2022/02/28 03:49:18;;;;;;;6.80;3.23;;;;;;;-0.49;70.14;96281.17;1730172;83;21066;-66
2022/02/28 03:51:49;;;;;;;4.45;2.67;;;;;;;-0.51;70.27;96280.22;1729496;82;21038;-66
2022/02/28 03:54:33;;;;;;;6.78;2.72;;;;;;;-0.50;70.24;96282.02;1731771;82;21024;-67
2022/02/28 03:57:00;;;;;;;6.60;3.83;;;;;;;-0.51;70.03;96286.70;1730123;82;21003;-66
2022/02/28 03:59:27;;;;;;;9.30;3.87;;;;;;;-0.56;69.82;96276.17;1729941;83;21620;-66
2022/02/28 04:01:53;;;;;;;4.80;2.70;;;;;;;-0.62;69.69;96282.45;1736471;81;21047;-66
2022/02/28 04:04:22;;;;;;;6.70;3.00;;;;;;;-0.71;69.89;96281.69;1758650;81;21099;-65
2022/02/28 04:06:48;;;;;;;7.20;2.97;;;;;;;-0.70;70.29;96283.47;1759169;81;21018;-65
2022/02/28 04:09:17;;;;;;;10.30;5.57;;;;;;;-0.65;70.01;96281.05;1754329;81;20995;-66
2022/02/28 04:11:44;;;;;;;14.40;5.10;;;;;;;-0.67;71.37;96278.39;1758988;82;20980;-66
2022/02/28 04:14:11;;;;;;;10.73;4.20;;;;;;;-0.63;71.54;96276.81;1759268;82;21517;-66
2022/02/28 04:16:37;;;;;;;7.80;3.13;;;;;;;-0.68;71.60;96284.42;1758764;81;20999;-66
2022/02/28 04:19:24;;;;;;;5.20;3.57;;;;;;;-0.75;72.35;96281.55;1712652;84;21107;-66
2022/02/28 04:21:52;;;;;;;5.83;3.30;;;;;;;-0.78;72.10;96287.51;1694926;85;21007;-66
2022/02/28 04:24:20;;;;;;;9.70;2.77;;;;;;;-0.76;71.94;96283.66;1710404;83;21026;-66
2022/02/28 04:26:48;;;;;;;8.57;2.80;;;;;;;-0.75;71.91;96285.02;1737747;83;21038;-66
2022/02/28 04:29:15;;;;;;;6.57;3.17;;;;;;;-0.78;71.23;96284.01;1737781;83;21026;-66
2022/02/28 04:31:43;;;;;;;4.20;2.63;;;;;;;-0.74;71.43;96289.78;1737665;83;21022;-66
2022/02/28 04:34:10;;;;;;;4.57;2.83;;;;;;;-0.70;71.35;96286.48;1737850;82;21094;-66
2022/02/28 04:36:37;;;;;;;6.77;2.93;;;;;;;-0.70;71.04;96285.19;1737880;83;20990;-67
2022/02/28 04:39:04;;;;;;;3.80;2.27;;;;;;;-0.72;70.86;96295.91;1737690;83;21512;-66
2022/02/28 04:41:31;;;;;;;3.93;2.60;;;;;;;-0.75;71.22;96293.22;1758952;81;21027;-66
2022/02/28 04:43:58;;;;;;;5.40;3.40;;;;;;;-0.77;71.05;96297.45;1721040;83;21081;-66
2022/02/28 04:46:26;;;;;;;7.67;3.83;;;;;;;-0.89;71.95;96292.70;1737660;83;21026;-66
2022/02/28 04:48:54;;;;;;;5.23;3.03;;;;;;;-0.85;71.47;96299.77;1737839;83;21552;-65
2022/02/28 04:51:25;;;;;;;8.63;3.67;;;;;;;-0.90;71.12;96297.42;1737086;83;21026;-66
2022/02/28 04:53:52;;;;;;;5.00;2.70;;;;;;;-1.00;71.10;96295.33;1737848;82;20979;-66
2022/02/28 04:56:19;;;;;;;6.87;4.40;;;;;;;-1.04;71.77;96305.09;1759171;81;21082;-66
2022/02/28 04:58:46;;;;;;;8.07;4.63;;;;;;;-1.06;71.94;96301.13;1721137;83;21062;-66
2022/02/28 05:01:32;;;;;;;10.07;5.40;;;;;;;-0.98;71.27;96306.63;1737679;83;21018;-66
2022/02/28 05:04:00;;;;;;;10.23;4.97;;;;;;;-0.85;71.21;96310.13;1737707;82;21074;-66
2022/02/28 05:06:27;;;;;;;14.43;8.80;;;;;;;-0.82;70.70;96305.05;1758957;81;21023;-66
2022/02/28 05:08:54;;;;;;;317.80;146.00;;;;;;;-0.74;70.47;96314.40;1716644;83;20975;-66
2022/02/28 05:11:21;;;;;;;197.30;87.17;;;;;;;-0.71;70.16;96318.39;1737868;82;21086;-66
2022/02/28 05:13:49;;;;;;;87.70;43.90;;;;;;;-0.72;69.81;96317.52;1737858;82;21023;-66
2022/02/28 05:16:16;;;;;;;181.43;93.53;;;;;;;-0.66;69.77;96316.84;1737912;82;21049;-66
2022/02/28 05:18:43;;;;;;;60.23;33.97;;;;;;;-0.64;69.54;96321.67;1737827;82;21065;-68
2022/02/28 05:21:10;;;;;;;64.03;39.33;;;;;;;-0.57;69.56;96320.20;1737713;82;21114;-66
2022/02/28 05:23:38;;;;;;;16.50;6.90;;;;;;;-0.57;68.94;96326.68;1738383;82;21295;-66
2022/02/28 05:26:04;;;;;;;10.23;5.50;;;;;;;-0.56;69.21;96326.72;1737828;82;21551;-66
2022/02/28 05:28:31;;;;;;;27.60;12.57;;;;;;;-0.55;68.78;96325.03;1731084;82;21038;-66
2022/02/28 05:30:59;;;;;;;18.53;10.10;;;;;;;-0.55;68.87;96329.80;1737857;82;21018;-66
2022/02/28 05:33:25;;;;;;;17.60;9.30;;;;;;;-0.58;68.90;96337.86;1737638;82;21512;-65
2022/02/28 05:35:54;;;;;;;14.17;8.10;;;;;;;-0.61;68.93;96336.03;1737751;83;21114;-66
2022/02/28 05:38:22;;;;;;;27.23;12.53;;;;;;;-0.60;69.13;96340.83;1737500;82;21058;-65
2022/02/28 05:40:53;;;;;;;32.60;15.40;;;;;;;-0.62;69.00;96342.48;1737710;82;21117;-66
2022/02/28 05:43:21;;;;;;;29.10;15.10;;;;;;;-0.66;68.95;96347.95;1737183;82;21018;-66
2022/02/28 05:45:48;;;;;;;25.43;12.17;;;;;;;-0.67;69.19;96347.07;1737730;83;21066;-66
2022/02/28 05:48:20;;;;;;;10.23;4.77;;;;;;;-0.67;69.85;96350.95;1730512;82;21034;-66
2022/02/28 05:50:46;;;;;;;8.30;4.73;;;;;;;-0.66;68.99;96351.84;1737939;82;21141;-66
2022/02/28 05:53:13;;;;;;;8.97;4.80;;;;;;;-0.69;69.05;96351.73;1759168;81;21476;-66
2022/02/28 05:55:39;;;;;;;17.40;10.70;;;;;;;-0.73;69.15;96353.34;1721307;83;21058;-66
2022/02/28 05:58:06;;;;;;;17.77;8.50;;;;;;;-0.68;69.21;96358.66;1738014;82;21038;-65
2022/02/28 06:00:33;;;;;;;9.93;5.67;;;;;;;-0.68;69.36;96366.05;1758873;81;21438;-67
2022/02/28 06:02:59;;;;;;;28.07;12.90;;;;;;;-0.62;69.16;96361.92;1727211;83;21094;-67
2022/02/28 06:05:26;;;;;;;16.57;8.07;;;;;;;-0.63;69.31;96372.70;1797146;80;21088;-66
2022/02/28 06:07:53;;;;;;;12.27;6.90;;;;;;;-0.54;69.51;96370.43;1796211;80;21008;-69
2022/02/28 06:10:19;;;;;;;14.50;7.83;;;;;;;-0.54;69.24;96366.96;1796836;80;21619;-69
2022/02/28 06:12:46;;;;;;;34.13;26.17;;;;;;;-0.48;69.57;96362.89;1795770;80;21122;-67
2022/02/28 06:15:13;;;;;;;16.40;8.57;;;;;;;-0.38;69.42;96367.97;1795364;80;21035;-67
2022/02/28 06:17:39;;;;;;;14.17;8.83;;;;;;;-0.35;69.36;96367.19;1796013;80;21031;-68
2022/02/28 06:20:07;;;;;;;17.50;9.07;;;;;;;-0.30;69.38;96362.66;1796079;80;21525;-70
2022/02/28 06:22:33;;;;;;;24.27;10.87;;;;;;;-0.28;68.58;96367.50;1795977;80;20995;-67
2022/02/28 06:25:00;;;;;;;17.03;8.90;;;;;;;-0.32;68.35;96363.02;1796764;80;21083;-68
2022/02/28 06:27:27;;;;;;;23.60;10.43;;;;;;;-0.27;68.58;96370.97;1796954;80;20991;-67
2022/02/28 06:29:53;;;;;;;10.40;6.30;;;;;;;-0.18;69.07;96367.38;1796804;80;21529;-68
2022/02/28 06:32:20;;;;;;;9.30;5.57;;;;;;;-0.16;69.34;96360.96;1795988;80;21161;-68
2022/02/28 06:34:47;;;;;;;8.60;5.10;;;;;;;-0.07;69.11;96369.08;1795788;80;21000;-67
2022/02/28 06:37:13;;;;;;;7.43;4.20;;;;;;;-0.04;68.57;96368.75;1795781;80;21027;-66
2022/02/28 06:39:40;;;;;;;7.30;4.73;;;;;;;0.02;68.26;96369.80;1796791;80;21100;-67
2022/02/28 06:42:09;;;;;;;9.20;6.63;;;;;;;0.08;68.34;96369.59;1795825;80;21549;-67
2022/02/28 06:44:36;;;;;;;26.10;18.97;;;;;;;0.16;68.02;96370.73;1803819;78;21452;-67
2022/02/28 06:47:03;;;;;;;27.63;19.03;;;;;;;0.22;67.87;96371.34;1823595;78;21065;-68
2022/02/28 06:49:30;;;;;;;29.57;21.50;;;;;;;0.22;68.00;96370.05;1822937;78;20970;-69
2022/02/28 06:51:56;;;;;;;39.80;28.27;;;;;;;0.25;68.44;96369.27;1828271;78;21072;-67
2022/02/28 06:54:23;;;;;;;17.70;11.43;;;;;;;0.33;68.27;96379.52;1829196;78;20978;-68
2022/02/28 06:56:49;;;;;;;17.63;12.17;;;;;;;0.44;68.04;96372.95;1829402;78;21014;-65
2022/02/28 06:59:16;;;;;;;16.47;13.33;;;;;;;0.57;67.95;96376.83;1814546;78;21551;-66
2022/02/28 07:01:43;;;;;;;14.57;9.10;;;;;;;0.71;67.92;96366.90;1764216;81;21133;-66
2022/02/28 07:04:28;;;;;;;16.00;10.40;;;;;;;0.86;67.64;96373.45;1821718;78;20986;-66
2022/02/28 07:06:55;;;;;;;10.57;6.87;;;;;;;0.94;66.75;96369.78;1817048;77;21082;-68
2022/02/28 07:09:22;;;;;;;10.90;5.37;;;;;;;0.98;66.25;96374.64;1815817;79;21484;-68
2022/02/28 07:11:48;;;;;;;12.87;5.87;;;;;;;0.99;65.71;96372.53;1815442;78;20999;-68
2022/02/28 07:14:15;;;;;;;10.07;5.77;;;;;;;0.99;66.01;96365.61;1814497;78;21586;-68
2022/02/28 07:16:41;;;;;;;7.47;5.10;;;;;;;1.10;66.16;96376.33;1815808;79;21042;-67
2022/02/28 07:19:08;;;;;;;11.67;6.07;;;;;;;1.14;65.84;96366.50;1814270;78;22302;-67
2022/02/28 07:21:35;;;;;;;9.50;5.53;;;;;;;1.10;65.20;96368.53;1815495;78;21022;-67
2022/02/28 07:24:01;;;;;;;8.87;5.70;;;;;;;1.12;65.36;96357.77;1814530;79;21030;-68
2022/02/28 07:26:31;;;;;;;11.17;6.43;;;;;;;1.10;64.66;96363.75;1815276;79;20995;-67
2022/02/28 07:28:58;;;;;;;8.60;5.40;;;;;;;1.03;64.21;96373.07;1815755;79;21476;-67
2022/02/28 07:31:25;;;;;;;9.93;5.83;;;;;;;1.07;64.76;96371.92;1815548;78;21011;-68
2022/02/28 07:33:51;;;;;;;9.00;4.70;;;;;;;1.12;64.58;96364.27;1821178;78;21472;-68
2022/02/28 07:36:18;;;;;;;12.93;5.17;;;;;;;1.17;63.77;96363.98;1795186;80;21069;-69
2022/02/28 07:38:45;;;;;;;7.53;5.63;;;;;;;1.20;64.59;96369.69;1794985;80;21078;-68
2022/02/28 07:41:11;;;;;;;7.60;5.10;;;;;;;1.23;63.05;96369.77;1828729;78;21544;-67
2022/02/28 07:43:38;;;;;;;5.50;3.90;;;;;;;1.23;62.56;96371.95;1829058;78;21472;-66
2022/02/28 07:46:04;;;;;;;5.80;3.83;;;;;;;1.25;61.52;96374.61;1829410;78;21049;-69
2022/02/28 07:48:31;;;;;;;10.47;4.50;;;;;;;1.25;61.32;96381.11;1829468;78;20996;-72
2022/02/28 07:50:58;;;;;;;8.30;4.60;;;;;;;1.22;61.46;96375.40;1828834;78;21002;-68
2022/02/28 07:53:24;;;;;;;6.30;3.57;;;;;;;1.26;61.31;96380.26;1828359;78;21053;-67
2022/02/28 07:55:51;;;;;;;6.43;4.13;;;;;;;1.24;60.54;96375.03;1795349;80;21566;-69
2022/02/28 07:58:18;;;;;;;4.87;3.50;;;;;;;1.26;60.99;96379.87;1828975;78;21009;-66
2022/02/28 08:00:44;;;;;;;8.23;5.33;;;;;;;1.26;61.33;96381.55;1829426;78;21046;-67
2022/02/28 08:03:11;;;;;;;8.93;6.30;;;;;;;1.26;60.65;96382.47;1825275;78;21053;-65
2022/02/28 08:05:38;;;;;;;4.83;3.80;;;;;;;1.24;60.76;96379.36;1782673;80;21006;-65
2022/02/28 08:08:04;;;;;;;21.13;13.97;;;;;;;1.21;60.67;96386.64;1782747;80;20999;-65
2022/02/28 08:10:31;;;;;;;51.40;37.20;;;;;;;1.21;60.78;96389.25;1782120;80;21101;-66
2022/02/28 08:12:58;;;;;;;6.57;4.63;;;;;;;1.28;60.78;96383.37;1782396;80;21539;-65
2022/02/28 08:15:25;;;;;;;80.20;53.87;;;;;;;1.30;60.31;96388.20;1771361;81;21013;-66
2022/02/28 08:17:51;;;;;;;151.77;103.93;;;;;;;1.24;61.46;96396.25;1771070;81;21021;-67
2022/02/28 08:20:17;;;;;;;103.23;73.43;;;;;;;1.28;60.89;96400.27;1770816;81;21041;-65
2022/02/28 08:22:44;;;;;;;73.83;59.27;;;;;;;1.26;61.07;96401.97;1770945;81;21001;-67
2022/02/28 08:25:11;;;;;;;14.03;9.80;;;;;;;1.33;61.66;96400.83;1770832;81;21152;-66
2022/02/28 08:27:38;;;;;;;8.50;4.40;;;;;;;1.45;61.90;96400.77;1771320;81;20998;-68
2022/02/28 08:30:06;;;;;;;7.10;4.93;;;;;;;1.43;61.86;96395.06;1771541;81;21061;-69
2022/02/28 08:32:33;;;;;;;6.20;3.97;;;;;;;1.42;62.04;96399.39;1771421;81;21014;-65
2022/02/28 08:34:59;;;;;;;7.47;4.03;;;;;;;1.42;62.32;96400.69;1772041;81;22194;-66
2022/02/28 08:37:26;;;;;;;6.40;4.00;;;;;;;1.35;61.93;96399.17;1770962;81;20985;-66
2022/02/28 08:39:52;;;;;;;7.07;4.20;;;;;;;1.39;62.43;96397.13;1782675;80;21547;-67
2022/02/28 08:42:19;;;;;;;10.30;7.10;;;;;;;1.35;62.82;96395.27;1771661;81;21013;-67
2022/02/28 08:44:46;;;;;;;8.10;4.80;;;;;;;1.41;62.71;96401.55;1772138;81;21045;-66
2022/02/28 08:47:12;;;;;;;6.90;4.83;;;;;;;1.68;63.51;96395.36;1771101;81;21049;-67
2022/02/28 08:49:39;;;;;;;8.77;5.13;;;;;;;1.92;62.45;96399.09;1770837;81;21123;-70
2022/02/28 08:52:07;;;;;;;8.07;5.47;;;;;;;2.03;62.03;96397.64;1771675;81;21539;-67
2022/02/28 08:54:35;;;;;;;11.73;5.30;;;;;;;1.92;60.63;96396.48;1771881;81;22127;-68
2022/02/28 08:57:03;;;;;;;6.93;4.47;;;;;;;1.85;60.24;96397.14;1772049;81;21554;-66
2022/02/28 08:59:31;;;;;;;7.17;4.50;;;;;;;1.67;60.39;96395.78;1772122;81;21026;-67
2022/02/28 09:01:57;;;;;;;10.60;6.10;;;;;;;1.65;60.52;96400.06;1770780;81;21144;-68
2022/02/28 09:04:24;;;;;;;6.27;4.90;;;;;;;1.57;60.51;96401.56;1760353;81;21101;-71
2022/02/28 09:06:53;;;;;;;7.17;5.07;;;;;;;1.59;61.28;96400.28;1758327;82;21002;-67
2022/02/28 09:09:20;;;;;;;8.23;5.27;;;;;;;1.63;61.33;96412.13;1759073;81;21494;-67
2022/02/28 09:11:46;;;;;;;9.10;6.10;;;;;;;1.79;61.75;96404.77;1758023;81;20978;-71
2022/02/28 09:14:13;;;;;;;23.33;14.70;;;;;;;2.02;62.02;96410.20;1758817;81;21021;-67
2022/02/28 09:16:39;;;;;;;6.97;5.60;;;;;;;2.05;60.55;96401.17;1758538;81;21554;-70
2022/02/28 09:19:06;;;;;;;8.87;5.90;;;;;;;1.97;61.25;96401.39;1757865;81;21096;-69
2022/02/28 09:21:33;;;;;;;9.70;7.47;;;;;;;2.37;63.01;96396.83;1757727;81;21530;-69
2022/02/28 09:23:59;;;;;;;9.37;8.03;;;;;;;2.84;61.64;96391.02;1758465;81;21089;-70
2022/02/28 09:26:26;;;;;;;10.13;6.67;;;;;;;2.79;59.32;96395.24;1758355;81;21009;-69
2022/02/28 09:28:52;;;;;;;8.57;6.30;;;;;;;2.59;58.76;96400.84;1757858;81;21020;-68
2022/02/28 09:31:19;;;;;;;6.13;4.40;;;;;;;2.50;58.91;96400.62;1758796;81;21080;-68
2022/02/28 09:33:46;;;;;;;8.27;5.90;;;;;;;2.40;58.63;96408.17;1758893;81;21031;-68
2022/02/28 09:36:14;;;;;;;6.47;3.83;;;;;;;2.23;58.83;96415.53;1758365;81;21009;-71
2022/02/28 09:38:40;;;;;;;6.83;4.23;;;;;;;2.22;57.68;96417.66;1757296;81;21566;-68
2022/02/28 09:41:10;;;;;;;4.67;2.90;;;;;;;2.26;57.73;96411.27;1757575;81;21070;-69
2022/02/28 09:43:56;;;;;;;4.90;3.60;;;;;;;2.64;56.10;96409.20;1753507;81;21053;-69
2022/02/28 09:46:34;;;;;;;5.20;2.70;;;;;;;2.91;55.87;96404.66;1679971;85;21130;-68
2022/02/28 09:49:18;;;;;;;4.37;2.87;;;;;;;2.84;54.91;96417.09;1663805;86;21048;-69
2022/02/28 09:51:45;;;;;;;3.87;2.90;;;;;;;3.00;54.64;96407.50;1734559;81;21152;-69
2022/02/28 09:54:32;;;;;;;12.60;7.67;;;;;;;3.37;55.84;96391.37;1758099;81;21058;-70
2022/02/28 09:57:21;;;;;;;8.47;5.87;;;;;;;3.67;56.25;96400.71;1751848;82;21530;-67
2022/02/28 09:59:50;;;;;;;11.30;8.17;;;;;;;3.95;55.70;96398.23;1750038;82;21680;-68
2022/02/28 10:02:17;;;;;;;5.70;3.70;;;;;;;4.12;54.57;96391.61;1760404;81;21033;-69
2022/02/28 10:04:46;;;;;;;5.47;3.43;;;;;;;4.05;52.20;96398.87;1784372;80;21642;-70
2022/02/28 10:07:23;;;;;;;7.50;6.80;;;;;;;3.95;52.61;96400.84;1796153;80;21002;-69
2022/02/28 10:10:14;;;;;;;5.03;3.37;;;;;;;3.96;54.29;96408.28;1796154;79;21022;-69
2022/02/28 10:12:39;;;;;;;7.27;4.03;;;;;;;3.92;53.50;96401.22;1793216;80;21058;-70
2022/02/28 10:15:09;;;;;;;4.47;2.90;;;;;;;3.56;52.52;96404.41;1795465;79;21073;-70
2022/02/28 10:17:56;;;;;;;3.27;2.77;;;;;;;3.55;52.29;96397.84;1795224;80;21072;-70
2022/02/28 10:20:30;;;;;;;5.73;4.07;;;;;;;3.63;52.92;96405.00;1795733;80;21527;-71
2022/02/28 10:23:02;;;;;;;7.83;5.07;;;;;;;3.75;53.54;96403.05;1795647;80;21077;-71
2022/02/28 10:25:42;;;;;;;5.83;3.77;;;;;;;3.67;51.65;96408.11;1795098;80;21022;-70
2022/02/28 10:28:24;;;;;;;4.70;3.23;;;;;;;3.63;50.69;96407.61;1792795;80;21033;-70
2022/02/28 10:31:04;;;;;;;4.03;2.83;;;;;;;3.38;50.15;96408.80;1795880;80;20994;-70
2022/02/28 10:33:49;;;;;;;4.63;3.60;;;;;;;3.18;50.54;96415.30;1795721;80;21536;-69
2022/02/28 10:36:28;;;;;;;5.40;3.60;;;;;;;3.14;50.93;96419.55;1770075;80;21002;-70
2022/02/28 10:38:57;;;;;;;7.60;5.13;;;;;;;3.08;51.19;96415.50;1795876;79;21022;-69
2022/02/28 10:41:31;;;;;;;5.60;3.67;;;;;;;3.17;52.36;96418.73;1795622;79;21002;-70
2022/02/28 10:44:00;;;;;;;7.03;3.40;;;;;;;3.07;50.89;96416.33;1795985;80;21528;-69
2022/02/28 10:46:44;;;;;;;5.20;3.10;;;;;;;2.97;52.39;96407.83;1796144;79;21021;-70
2022/02/28 10:49:22;;;;;;;3.63;2.93;;;;;;;2.92;53.18;96411.63;1795926;80;21002;-70
2022/02/28 10:51:55;;;;;;;5.23;3.50;;;;;;;2.95;52.19;96408.25;1794288;80;21477;-69
2022/02/28 10:54:26;;;;;;;5.17;3.25;;;;;;;2.93;52.84;96409.92;1796039;79;20986;-69
2022/02/28 10:57:18;;;;;;;4.87;3.40;;;;;;;3.01;53.84;96405.77;1796015;80;21519;-69
2022/02/28 10:59:52;;;;;;;5.40;3.10;;;;;;;3.93;54.49;96406.89;1796170;79;21492;-69
2022/02/28 11:02:37;;;;;;;6.50;5.13;;;;;;;4.95;51.75;96384.34;1795701;80;21005;-69
2022/02/28 11:05:11;;;;;;;6.53;3.53;;;;;;;5.58;47.93;96378.72;1785488;79;21022;-69
2022/02/28 11:07:49;;;;;;;5.03;3.70;;;;;;;5.39;46.68;96380.19;1781886;80;20994;-69
2022/02/28 11:10:19;;;;;;;7.50;3.43;;;;;;;5.19;47.32;96384.73;1781398;80;21023;-69
2022/02/28 11:12:50;;;;;;;5.20;3.40;;;;;;;4.77;47.51;96391.03;1781880;80;20995;-70
2022/02/28 11:15:20;;;;;;;4.47;3.20;;;;;;;4.54;48.24;96398.92;1781936;80;21477;-69
2022/02/28 11:17:48;;;;;;;4.93;3.37;;;;;;;4.14;47.66;96409.94;1781755;80;21006;-70
2022/02/28 11:20:19;;;;;;;7.23;4.60;;;;;;;3.58;49.00;96420.98;1781698;80;21073;-69
2022/02/28 11:22:49;;;;;;;6.57;3.40;;;;;;;3.41;49.74;96414.52;1781874;80;20987;-70
2022/02/28 11:25:18;;;;;;;6.63;3.67;;;;;;;2.99;49.77;96432.22;1781720;80;21086;-69
2022/02/28 11:27:47;;;;;;;4.43;3.13;;;;;;;2.66;50.54;96427.94;1781840;80;20959;-70
2022/02/28 11:30:24;;;;;;;5.57;3.63;;;;;;;2.43;51.20;96432.56;1782288;80;21477;-69
2022/02/28 11:33:04;;;;;;;7.00;4.27;;;;;;;2.29;52.21;96426.09;1760521;80;20994;-69
2022/02/28 11:35:51;;;;;;;8.03;3.67;;;;;;;2.28;53.17;96433.03;1781008;80;21504;-69
2022/02/28 11:38:24;;;;;;;7.20;4.50;;;;;;;2.29;54.34;96432.21;1781845;80;21034;-69
2022/02/28 11:40:55;;;;;;;6.17;4.25;;;;;;;2.24;54.38;96432.91;1781961;80;20992;-69